createdAt,value
2018-03-29T00:01:32.309Z,11.13
2018-03-29T00:06:35.859Z,10.90
2018-03-29T00:11:38.895Z,13.57
2018-03-29T00:16:42.243Z,12.50
2018-03-29T00:21:45.470Z,14.33
2018-03-29T00:26:48.366Z,17.70
2018-03-29T00:31:52.217Z,10.83
2018-03-29T00:36:55.353Z,12.17
2018-03-29T00:41:58.202Z,14.90
2018-03-29T00:47:02.378Z,15.83
2018-03-29T00:52:05.483Z,13.10
2018-03-29T00:57:09.049Z,13.47
2018-03-29T01:02:12.493Z,11.10
2018-03-29T01:07:15.565Z,18.70
2018-03-29T01:12:18.702Z,14.97
2018-03-29T01:17:21.719Z,12.93
2018-03-29T01:22:24.665Z,16.20
2018-03-29T01:27:27.738Z,9.40
2018-03-29T01:32:38.632Z,14.83
2018-03-29T01:37:43.619Z,12.73
2018-03-29T01:42:47.614Z,13.00
2018-03-29T01:47:51.346Z,15.93
2018-03-29T01:57:57.598Z,22.43
2018-03-29T02:03:01.939Z,13.83
2018-03-29T02:08:05.046Z,16.17
2018-03-29T02:13:08.033Z,11.63
2018-03-29T02:18:11.463Z,14.23
2018-03-29T02:23:14.849Z,11.37
2018-03-29T02:28:17.905Z,12.10
2018-03-29T02:33:21.305Z,14.60
2018-03-29T02:38:24.114Z,15.53
2018-03-29T02:43:27.282Z,14.90
2018-03-29T02:48:30.315Z,14.43
2018-03-29T02:53:33.634Z,9.33
2018-03-29T02:58:36.551Z,11.53
2018-03-29T03:03:39.972Z,12.10
2018-03-29T03:08:43.150Z,22.00
2018-03-29T03:13:46.118Z,17.00
2018-03-29T03:18:49.436Z,12.40
2018-03-29T03:23:52.731Z,15.47
2018-03-29T03:28:56.789Z,15.40
2018-03-29T03:34:00.630Z,12.67
2018-03-29T03:39:05.111Z,11.70
2018-03-29T03:44:08.189Z,17.27
2018-03-29T03:49:11.318Z,20.80
2018-03-29T03:54:14.366Z,17.00
2018-03-29T03:59:17.461Z,12.83
2018-03-29T04:04:20.537Z,17.90
2018-03-29T04:09:24.481Z,18.57
2018-03-29T04:14:27.393Z,16.43
2018-03-29T04:19:30.566Z,19.83
2018-03-29T04:24:34.824Z,18.27
2018-03-29T04:29:37.978Z,13.60
2018-03-29T04:34:41.054Z,17.70
2018-03-29T04:39:44.578Z,19.40
2018-03-29T04:44:47.753Z,21.83
2018-03-29T04:49:51.278Z,16.63
2018-03-29T04:54:54.237Z,14.03
2018-03-29T04:59:57.154Z,17.70
2018-03-29T05:05:00.240Z,17.13
2018-03-29T05:10:04.107Z,16.07
2018-03-29T05:15:07.057Z,10.93
2018-03-29T05:20:10.131Z,17.23
2018-03-29T05:25:13.036Z,22.43
2018-03-29T05:30:16.594Z,20.23
2018-03-29T05:35:20.210Z,16.60
2018-03-29T05:40:23.113Z,15.33
2018-03-29T05:45:40.690Z,16.13
2018-03-29T05:50:43.952Z,14.87
2018-03-29T05:55:46.809Z,15.43
2018-03-29T06:00:49.634Z,14.27
2018-03-29T06:05:52.521Z,17.97
2018-03-29T06:10:55.642Z,16.23
2018-03-29T06:16:02.967Z,17.33
2018-03-29T06:21:06.167Z,15.93
2018-03-29T06:26:09.320Z,17.47
2018-03-29T06:31:12.125Z,15.13
2018-03-29T06:36:15.003Z,18.43
2018-03-29T06:41:17.830Z,19.13
2018-03-29T06:46:20.696Z,18.17
2018-03-29T06:51:23.528Z,12.43
2018-03-29T06:56:26.368Z,10.13
2018-03-29T07:01:29.206Z,16.40
2018-03-29T07:06:32.070Z,17.57
2018-03-29T07:11:34.903Z,15.70
2018-03-29T07:16:37.707Z,14.80
2018-03-29T07:21:41.050Z,14.60
2018-03-29T07:26:43.823Z,12.87
2018-03-29T07:31:47.048Z,17.80
2018-03-29T07:36:49.861Z,19.57
2018-03-29T07:41:52.648Z,13.37
2018-03-29T07:46:55.465Z,19.90
2018-03-29T07:51:58.268Z,10.77
2018-03-29T07:57:01.071Z,17.37
2018-03-29T08:02:03.878Z,17.87
2018-03-29T08:07:12.889Z,19.40
2018-03-29T08:12:16.580Z,15.30
2018-03-29T08:17:19.488Z,19.30
2018-03-29T08:22:22.487Z,16.07
2018-03-29T08:27:25.334Z,18.70
2018-03-29T08:32:28.174Z,17.37
2018-03-29T08:37:31.323Z,19.33
2018-03-29T08:42:34.442Z,18.23
2018-03-29T08:47:37.301Z,15.90
2018-03-29T08:52:41.040Z,18.37
2018-03-29T08:57:43.877Z,20.93
2018-03-29T09:02:46.799Z,19.50
2018-03-29T09:07:49.645Z,19.40
2018-03-29T09:12:52.469Z,28.77
2018-03-29T09:17:55.914Z,19.70
2018-03-29T09:22:58.786Z,23.73
2018-03-29T09:28:01.576Z,22.80
2018-03-29T09:33:04.363Z,18.30
2018-03-29T09:38:07.289Z,24.00
2018-03-29T09:43:10.429Z,21.63
2018-03-29T09:48:13.268Z,19.60
2018-03-29T09:53:16.272Z,21.37
2018-03-29T09:58:19.075Z,17.30
2018-03-29T10:03:22.080Z,18.63
2018-03-29T10:08:25.156Z,18.13
2018-03-29T10:13:27.974Z,22.20
2018-03-29T10:18:30.799Z,14.60
2018-03-29T10:23:33.647Z,16.67
2018-03-29T10:28:36.422Z,18.00
2018-03-29T10:33:39.475Z,9.90
2018-03-29T10:38:42.370Z,14.10
2018-03-29T10:43:45.158Z,15.60
2018-03-29T10:48:47.984Z,12.60
2018-03-29T10:53:51.294Z,17.23
2018-03-29T10:58:54.093Z,13.53
2018-03-29T11:03:56.899Z,10.93
2018-03-29T11:08:59.723Z,12.13
2018-03-29T11:14:02.534Z,11.37
2018-03-29T11:19:05.382Z,13.67
2018-03-29T11:24:08.819Z,13.20
2018-03-29T11:29:11.629Z,17.70
2018-03-29T11:34:14.456Z,16.27
2018-03-29T11:39:16.976Z,16.50
2018-03-29T11:44:19.749Z,15.47
2018-03-29T11:49:22.577Z,17.67
2018-03-29T11:54:25.662Z,17.30
2018-03-29T11:59:29.297Z,15.60
2018-03-29T12:04:32.192Z,14.30
2018-03-29T12:09:39.810Z,14.00
2018-03-29T12:14:43.648Z,15.17
2018-03-29T12:19:46.484Z,13.63
2018-03-29T12:24:49.341Z,16.87
2018-03-29T12:29:52.169Z,39.40
2018-03-29T12:34:55.011Z,14.17
2018-03-29T12:39:57.926Z,12.53
2018-03-29T12:45:00.768Z,14.10
2018-03-29T12:50:03.668Z,14.27
2018-03-29T12:55:17.792Z,14.37
2018-03-29T13:00:20.574Z,13.97
2018-03-29T13:05:23.391Z,13.87
2018-03-29T13:10:26.226Z,11.70
2018-03-29T13:15:29.053Z,12.70
2018-03-29T13:20:31.920Z,10.13
2018-03-29T13:25:34.751Z,12.27
2018-03-29T13:30:37.686Z,13.40
2018-03-29T13:35:40.561Z,11.17
2018-03-29T13:40:43.390Z,11.20
2018-03-29T13:45:46.192Z,11.53
2018-03-29T13:50:49.791Z,12.50
2018-03-29T13:55:52.785Z,9.33
2018-03-29T14:00:55.610Z,11.10
2018-03-29T14:05:58.809Z,8.83
2018-03-29T14:11:01.654Z,8.80
2018-03-29T14:16:04.503Z,8.47
2018-03-29T14:21:07.323Z,7.33
2018-03-29T14:26:10.118Z,9.90
2018-03-29T14:31:12.914Z,9.17
2018-03-29T14:36:15.713Z,7.77
2018-03-29T14:41:18.496Z,9.00
2018-03-29T14:46:21.254Z,8.50
2018-03-29T14:51:24.128Z,8.27
2018-03-29T14:56:27.564Z,9.50
2018-03-29T15:01:30.446Z,8.13
2018-03-29T15:06:33.332Z,7.90
2018-03-29T15:11:36.187Z,8.43
2018-03-29T15:16:39.095Z,8.90
2018-03-29T15:21:42.051Z,10.87
2018-03-29T15:26:45.124Z,10.33
2018-03-29T15:31:48.060Z,9.80
2018-03-29T15:36:50.867Z,7.57
2018-03-29T15:41:53.745Z,9.00
2018-03-29T15:46:56.656Z,9.13
2018-03-29T15:51:59.549Z,9.47
2018-03-29T15:57:02.554Z,9.00
2018-03-29T16:02:05.450Z,8.10
2018-03-29T16:07:08.389Z,11.97
2018-03-29T16:12:11.236Z,10.40
2018-03-29T16:17:14.266Z,10.97
2018-03-29T16:22:17.343Z,10.17
2018-03-29T16:27:22.199Z,11.50
2018-03-29T16:32:25.364Z,8.50
2018-03-29T16:37:29.392Z,10.27
2018-03-29T16:42:34.141Z,10.50
2018-03-29T16:47:37.382Z,7.50
2018-03-29T16:52:40.434Z,9.00
2018-03-29T16:57:43.610Z,10.40
2018-03-29T17:02:46.837Z,8.80
2018-03-29T17:07:49.911Z,8.03
2018-03-29T17:12:52.888Z,10.83
2018-03-29T17:17:55.918Z,11.17
2018-03-29T17:22:59.029Z,8.90
2018-03-29T17:28:02.108Z,11.13
2018-03-29T17:33:05.017Z,11.80
2018-03-29T17:38:08.806Z,8.43
2018-03-29T17:43:11.913Z,9.77
2018-03-29T17:48:14.916Z,7.00
2018-03-29T17:53:17.931Z,11.73
2018-03-29T17:58:21.180Z,9.40
2018-03-29T18:03:24.279Z,9.60
2018-03-29T18:08:27.350Z,10.07
2018-03-29T18:13:30.415Z,8.37
2018-03-29T18:18:37.835Z,11.77
2018-03-29T18:23:40.946Z,8.10
2018-03-29T18:28:44.086Z,9.17
2018-03-29T18:33:47.170Z,9.33
2018-03-29T18:38:50.269Z,8.20
2018-03-29T18:43:53.362Z,7.47
2018-03-29T18:48:56.460Z,8.63
2018-03-29T18:53:59.531Z,7.90
2018-03-29T18:59:02.763Z,8.87
2018-03-29T19:04:05.837Z,8.90
2018-03-29T19:09:09.647Z,7.23
2018-03-29T19:14:12.714Z,8.80
2018-03-29T19:19:15.821Z,9.50
2018-03-29T19:24:19.544Z,7.40
2018-03-29T19:29:23.170Z,8.37
2018-03-29T19:34:26.367Z,8.30
2018-03-29T19:39:29.656Z,10.60
2018-03-29T19:44:33.164Z,9.00
2018-03-29T19:49:36.388Z,8.47
2018-03-29T19:54:39.467Z,8.63
2018-03-29T19:59:42.605Z,7.17
2018-03-29T20:04:45.674Z,8.77
2018-03-29T20:09:48.915Z,9.57
2018-03-29T20:14:52.611Z,7.40
2018-03-29T20:19:55.817Z,7.10
2018-03-29T20:24:59.630Z,8.13
2018-03-29T20:30:02.765Z,9.07
2018-03-29T20:35:06.590Z,10.60
2018-03-29T20:40:09.679Z,6.97
2018-03-29T20:45:13.109Z,6.83
2018-03-29T20:50:16.099Z,7.47
2018-03-29T20:55:19.141Z,8.00
2018-03-29T21:00:23.095Z,7.83
2018-03-29T21:05:33.337Z,19.33
2018-03-29T21:10:37.997Z,9.43
2018-03-29T21:15:41.351Z,9.70
2018-03-29T21:20:44.686Z,8.33
2018-03-29T21:25:47.772Z,6.67
2018-03-29T21:30:50.956Z,8.70
2018-03-29T21:35:53.887Z,8.80
2018-03-29T21:40:57.217Z,7.47
2018-03-29T21:46:00.609Z,7.43
2018-03-29T21:51:03.506Z,7.73
2018-03-29T21:56:06.525Z,7.50
2018-03-29T22:01:10.099Z,8.53
2018-03-29T22:06:13.162Z,8.30
2018-03-29T22:11:16.350Z,6.83
2018-03-29T22:16:23.547Z,5.40
2018-03-29T22:21:26.654Z,7.30
2018-03-29T22:26:29.670Z,8.57
2018-03-29T22:31:33.719Z,7.73
2018-03-29T22:36:36.845Z,7.30
2018-03-29T22:41:39.986Z,6.17
2018-03-29T22:46:43.909Z,6.00
2018-03-29T22:51:47.069Z,6.20
2018-03-29T22:56:49.953Z,5.00
2018-03-29T23:01:53.104Z,5.17
2018-03-29T23:06:56.091Z,5.40
2018-03-29T23:11:59.401Z,10.57
2018-03-29T23:17:02.583Z,11.40
2018-03-29T23:22:05.850Z,12.50
2018-03-29T23:27:09.783Z,8.57
2018-03-29T23:32:13.546Z,7.20
2018-03-29T23:37:16.761Z,6.00
2018-03-29T23:42:20.088Z,7.20
2018-03-29T23:47:24.097Z,5.90
2018-03-29T23:52:26.906Z,5.53
2018-03-29T23:57:29.982Z,4.93
